sensor_id;sensor_type;location;lat;lon;timestamp;temperature;humidity
21335;DHT22;10826;52.536;13.432;2022-11-15T00:00:54;10.60;57.10
21335;DHT22;10826;52.536;13.432;2022-11-15T00:03:26;10.60;56.90
21335;DHT22;10826;52.536;13.432;2022-11-15T00:05:53;10.60;56.90
21335;DHT22;10826;52.536;13.432;2022-11-15T00:08:19;10.50;56.90
21335;DHT22;10826;52.536;13.432;2022-11-15T00:10:55;10.50;56.90
21335;DHT22;10826;52.536;13.432;2022-11-15T00:13:22;10.50;56.90
21335;DHT22;10826;52.536;13.432;2022-11-15T00:15:48;10.50;57.10
21335;DHT22;10826;52.536;13.432;2022-11-15T00:18:14;10.50;57.10
21335;DHT22;10826;52.536;13.432;2022-11-15T00:20:41;10.50;57.30
21335;DHT22;10826;52.536;13.432;2022-11-15T00:23:08;10.50;57.30
21335;DHT22;10826;52.536;13.432;2022-11-15T00:25:34;10.50;57.30
21335;DHT22;10826;52.536;13.432;2022-11-15T00:28:01;10.50;57.30
21335;DHT22;10826;52.536;13.432;2022-11-15T00:30:28;10.50;57.30
21335;DHT22;10826;52.536;13.432;2022-11-15T00:32:54;10.50;57.30
21335;DHT22;10826;52.536;13.432;2022-11-15T00:35:20;10.50;57.30
21335;DHT22;10826;52.536;13.432;2022-11-15T00:37:47;10.50;57.20
21335;DHT22;10826;52.536;13.432;2022-11-15T00:40:13;10.50;57.30
21335;DHT22;10826;52.536;13.432;2022-11-15T00:42:40;10.40;57.20
21335;DHT22;10826;52.536;13.432;2022-11-15T00:45:08;10.40;57.20
21335;DHT22;10826;52.536;13.432;2022-11-15T00:47:35;10.40;57.20
21335;DHT22;10826;52.536;13.432;2022-11-15T00:50:01;10.40;57.20
21335;DHT22;10826;52.536;13.432;2022-11-15T00:52:27;10.40;57.50
21335;DHT22;10826;52.536;13.432;2022-11-15T00:54:53;10.30;57.40
21335;DHT22;10826;52.536;13.432;2022-11-15T00:57:19;10.40;57.30
21335;DHT22;10826;52.536;13.432;2022-11-15T00:59:44;10.30;57.30
21335;DHT22;10826;52.536;13.432;2022-11-15T01:02:10;10.30;57.30
21335;DHT22;10826;52.536;13.432;2022-11-15T01:04:36;10.30;57.40
21335;DHT22;10826;52.536;13.432;2022-11-15T01:07:02;10.30;57.30
21335;DHT22;10826;52.536;13.432;2022-11-15T01:09:28;10.30;57.30
21335;DHT22;10826;52.536;13.432;2022-11-15T01:11:54;10.30;57.30
21335;DHT22;10826;52.536;13.432;2022-11-15T01:14:20;10.30;57.30
21335;DHT22;10826;52.536;13.432;2022-11-15T01:16:46;10.30;57.30
21335;DHT22;10826;52.536;13.432;2022-11-15T01:19:12;10.20;57.20
21335;DHT22;10826;52.536;13.432;2022-11-15T01:21:37;10.20;57.30
21335;DHT22;10826;52.536;13.432;2022-11-15T01:24:04;10.30;57.40
21335;DHT22;10826;52.536;13.432;2022-11-15T01:26:30;10.20;57.40
21335;DHT22;10826;52.536;13.432;2022-11-15T01:28:56;10.20;57.30
21335;DHT22;10826;52.536;13.432;2022-11-15T01:31:22;10.20;57.30
21335;DHT22;10826;52.536;13.432;2022-11-15T01:33:48;10.20;57.40
21335;DHT22;10826;52.536;13.432;2022-11-15T01:36:17;10.10;57.40
21335;DHT22;10826;52.536;13.432;2022-11-15T01:38:44;10.10;57.40
21335;DHT22;10826;52.536;13.432;2022-11-15T01:41:19;10.10;57.40
21335;DHT22;10826;52.536;13.432;2022-11-15T01:43:54;10.10;57.40
21335;DHT22;10826;52.536;13.432;2022-11-15T01:46:27;10.10;57.80
21335;DHT22;10826;52.536;13.432;2022-11-15T01:49:00;10.10;57.50
21335;DHT22;10826;52.536;13.432;2022-11-15T01:51:32;10.10;57.50
21335;DHT22;10826;52.536;13.432;2022-11-15T01:54:09;10.10;57.40
21335;DHT22;10826;52.536;13.432;2022-11-15T01:56:52;10.10;57.40
21335;DHT22;10826;52.536;13.432;2022-11-15T01:59:22;10.10;57.50
21335;DHT22;10826;52.536;13.432;2022-11-15T02:01:48;10.10;58.20
21335;DHT22;10826;52.536;13.432;2022-11-15T02:04:18;10.00;57.40
21335;DHT22;10826;52.536;13.432;2022-11-15T02:06:48;10.10;57.50
21335;DHT22;10826;52.536;13.432;2022-11-15T02:09:15;10.10;57.50
21335;DHT22;10826;52.536;13.432;2022-11-15T02:11:44;10.10;57.50
21335;DHT22;10826;52.536;13.432;2022-11-15T02:14:11;10.10;57.50
21335;DHT22;10826;52.536;13.432;2022-11-15T02:17:04;10.00;57.30
21335;DHT22;10826;52.536;13.432;2022-11-15T02:22:58;10.10;57.30
21335;DHT22;10826;52.536;13.432;2022-11-15T02:25:57;10.00;57.30
21335;DHT22;10826;52.536;13.432;2022-11-15T02:29:03;10.00;57.40
21335;DHT22;10826;52.536;13.432;2022-11-15T02:31:51;10.00;57.50
21335;DHT22;10826;52.536;13.432;2022-11-15T02:34:55;9.90;57.50
21335;DHT22;10826;52.536;13.432;2022-11-15T02:37:33;10.00;57.50
21335;DHT22;10826;52.536;13.432;2022-11-15T02:40:34;9.90;57.60
21335;DHT22;10826;52.536;13.432;2022-11-15T02:43:12;9.90;57.60
21335;DHT22;10826;52.536;13.432;2022-11-15T02:49:14;9.90;57.70
21335;DHT22;10826;52.536;13.432;2022-11-15T02:51:42;9.90;57.70
21335;DHT22;10826;52.536;13.432;2022-11-15T02:54:17;9.90;57.70
21335;DHT22;10826;52.536;13.432;2022-11-15T02:56:55;9.90;57.70
21335;DHT22;10826;52.536;13.432;2022-11-15T03:03:10;9.90;57.70
21335;DHT22;10826;52.536;13.432;2022-11-15T03:06:04;9.90;57.70
21335;DHT22;10826;52.536;13.432;2022-11-15T03:09:07;9.90;57.70
21335;DHT22;10826;52.536;13.432;2022-11-15T03:11:42;9.90;58.00
21335;DHT22;10826;52.536;13.432;2022-11-15T03:14:25;9.90;57.80
21335;DHT22;10826;52.536;13.432;2022-11-15T03:19:54;9.90;57.70
21335;DHT22;10826;52.536;13.432;2022-11-15T03:22:24;9.80;57.70
21335;DHT22;10826;52.536;13.432;2022-11-15T03:25:05;9.90;57.80
21335;DHT22;10826;52.536;13.432;2022-11-15T03:27:38;9.90;57.80
21335;DHT22;10826;52.536;13.432;2022-11-15T03:30:08;9.90;57.70
21335;DHT22;10826;52.536;13.432;2022-11-15T03:32:40;9.90;57.70
21335;DHT22;10826;52.536;13.432;2022-11-15T03:35:33;9.90;57.60
21335;DHT22;10826;52.536;13.432;2022-11-15T03:38:16;9.90;57.50
21335;DHT22;10826;52.536;13.432;2022-11-15T03:40:54;9.90;57.50
21335;DHT22;10826;52.536;13.432;2022-11-15T03:43:59;9.90;57.50
21335;DHT22;10826;52.536;13.432;2022-11-15T03:46:42;9.90;57.50
21335;DHT22;10826;52.536;13.432;2022-11-15T03:49:34;9.90;57.50
21335;DHT22;10826;52.536;13.432;2022-11-15T03:52:04;9.90;57.50
21335;DHT22;10826;52.536;13.432;2022-11-15T03:54:31;9.90;57.50
21335;DHT22;10826;52.536;13.432;2022-11-15T03:56:57;9.90;57.50
21335;DHT22;10826;52.536;13.432;2022-11-15T03:59:23;9.90;57.40
21335;DHT22;10826;52.536;13.432;2022-11-15T04:01:49;9.90;57.50
21335;DHT22;10826;52.536;13.432;2022-11-15T04:04:15;9.90;57.50
21335;DHT22;10826;52.536;13.432;2022-11-15T04:06:41;9.90;57.40
21335;DHT22;10826;52.536;13.432;2022-11-15T04:09:08;9.90;57.40
21335;DHT22;10826;52.536;13.432;2022-11-15T04:11:34;9.90;57.40
21335;DHT22;10826;52.536;13.432;2022-11-15T04:14:00;9.90;57.40
21335;DHT22;10826;52.536;13.432;2022-11-15T04:16:26;9.90;57.40
21335;DHT22;10826;52.536;13.432;2022-11-15T04:18:51;9.90;57.30
21335;DHT22;10826;52.536;13.432;2022-11-15T04:21:37;9.90;57.20
21335;DHT22;10826;52.536;13.432;2022-11-15T04:24:22;9.90;57.30
21335;DHT22;10826;52.536;13.432;2022-11-15T04:26:48;9.90;57.30
21335;DHT22;10826;52.536;13.432;2022-11-15T04:29:13;9.90;57.30
21335;DHT22;10826;52.536;13.432;2022-11-15T04:31:58;9.90;57.40
21335;DHT22;10826;52.536;13.432;2022-11-15T04:34:24;9.90;57.40
21335;DHT22;10826;52.536;13.432;2022-11-15T04:36:50;9.90;57.40
21335;DHT22;10826;52.536;13.432;2022-11-15T04:39:34;9.90;57.40
21335;DHT22;10826;52.536;13.432;2022-11-15T04:42:00;9.90;57.50
21335;DHT22;10826;52.536;13.432;2022-11-15T04:44:26;9.90;57.40
21335;DHT22;10826;52.536;13.432;2022-11-15T04:46:52;9.90;57.50
21335;DHT22;10826;52.536;13.432;2022-11-15T04:49:18;9.90;57.60
21335;DHT22;10826;52.536;13.432;2022-11-15T04:51:45;9.90;57.40
21335;DHT22;10826;52.536;13.432;2022-11-15T04:54:10;9.90;57.40
21335;DHT22;10826;52.536;13.432;2022-11-15T04:56:36;9.90;57.30
21335;DHT22;10826;52.536;13.432;2022-11-15T04:59:02;9.90;57.30
21335;DHT22;10826;52.536;13.432;2022-11-15T05:01:28;9.90;57.20
21335;DHT22;10826;52.536;13.432;2022-11-15T05:03:54;9.90;57.20
21335;DHT22;10826;52.536;13.432;2022-11-15T05:06:38;9.90;57.90
21335;DHT22;10826;52.536;13.432;2022-11-15T05:09:04;9.90;57.20
21335;DHT22;10826;52.536;13.432;2022-11-15T05:11:30;9.90;57.20
21335;DHT22;10826;52.536;13.432;2022-11-15T05:13:56;9.90;57.20
21335;DHT22;10826;52.536;13.432;2022-11-15T05:16:22;9.90;57.10
21335;DHT22;10826;52.536;13.432;2022-11-15T05:18:51;9.90;57.20
21335;DHT22;10826;52.536;13.432;2022-11-15T05:21:19;9.90;57.40
21335;DHT22;10826;52.536;13.432;2022-11-15T05:23:45;9.90;57.10
21335;DHT22;10826;52.536;13.432;2022-11-15T05:26:13;9.90;57.10
21335;DHT22;10826;52.536;13.432;2022-11-15T05:28:40;9.90;57.00
21335;DHT22;10826;52.536;13.432;2022-11-15T05:31:12;9.90;57.20
21335;DHT22;10826;52.536;13.432;2022-11-15T05:33:40;9.90;57.20
21335;DHT22;10826;52.536;13.432;2022-11-15T05:39:05;9.90;57.20
21335;DHT22;10826;52.536;13.432;2022-11-15T05:41:45;9.90;57.20
21335;DHT22;10826;52.536;13.432;2022-11-15T05:44:17;9.90;57.10
21335;DHT22;10826;52.536;13.432;2022-11-15T05:46:48;9.90;57.10
21335;DHT22;10826;52.536;13.432;2022-11-15T05:49:20;9.90;57.10
21335;DHT22;10826;52.536;13.432;2022-11-15T05:51:49;9.90;57.10
21335;DHT22;10826;52.536;13.432;2022-11-15T05:54:17;9.90;57.00
21335;DHT22;10826;52.536;13.432;2022-11-15T05:56:45;9.90;57.00
21335;DHT22;10826;52.536;13.432;2022-11-15T05:59:12;9.90;57.00
21335;DHT22;10826;52.536;13.432;2022-11-15T06:01:39;9.90;56.90
21335;DHT22;10826;52.536;13.432;2022-11-15T06:04:05;9.90;56.90
21335;DHT22;10826;52.536;13.432;2022-11-15T06:06:31;9.90;56.80
21335;DHT22;10826;52.536;13.432;2022-11-15T06:08:57;9.90;56.80
21335;DHT22;10826;52.536;13.432;2022-11-15T06:11:22;9.90;56.80
21335;DHT22;10826;52.536;13.432;2022-11-15T06:13:48;9.90;56.80
21335;DHT22;10826;52.536;13.432;2022-11-15T06:16:14;9.90;56.80
21335;DHT22;10826;52.536;13.432;2022-11-15T06:18:40;9.90;57.00
21335;DHT22;10826;52.536;13.432;2022-11-15T06:21:06;9.90;56.90
21335;DHT22;10826;52.536;13.432;2022-11-15T06:23:33;9.90;56.90
21335;DHT22;10826;52.536;13.432;2022-11-15T06:26:01;9.90;56.80
21335;DHT22;10826;52.536;13.432;2022-11-15T06:28:29;9.90;56.80
21335;DHT22;10826;52.536;13.432;2022-11-15T06:30:56;9.90;56.80
21335;DHT22;10826;52.536;13.432;2022-11-15T06:33:22;9.90;56.80
21335;DHT22;10826;52.536;13.432;2022-11-15T06:35:48;9.90;56.90
21335;DHT22;10826;52.536;13.432;2022-11-15T06:38:14;9.90;56.90
21335;DHT22;10826;52.536;13.432;2022-11-15T06:40:40;9.90;56.90
21335;DHT22;10826;52.536;13.432;2022-11-15T06:43:06;9.90;56.90
21335;DHT22;10826;52.536;13.432;2022-11-15T06:45:33;9.90;56.90
21335;DHT22;10826;52.536;13.432;2022-11-15T06:47:59;9.90;57.00
21335;DHT22;10826;52.536;13.432;2022-11-15T06:50:25;9.90;57.00
21335;DHT22;10826;52.536;13.432;2022-11-15T06:52:51;9.90;57.20
21335;DHT22;10826;52.536;13.432;2022-11-15T06:55:16;9.90;57.20
21335;DHT22;10826;52.536;13.432;2022-11-15T06:57:49;9.90;57.30
21335;DHT22;10826;52.536;13.432;2022-11-15T07:00:18;9.90;57.30
21335;DHT22;10826;52.536;13.432;2022-11-15T07:02:46;9.90;57.30
21335;DHT22;10826;52.536;13.432;2022-11-15T07:05:13;9.90;57.40
21335;DHT22;10826;52.536;13.432;2022-11-15T07:07:39;9.90;57.40
21335;DHT22;10826;52.536;13.432;2022-11-15T07:10:06;10.00;57.40
21335;DHT22;10826;52.536;13.432;2022-11-15T07:12:33;10.00;57.40
21335;DHT22;10826;52.536;13.432;2022-11-15T07:14:59;10.00;57.30
21335;DHT22;10826;52.536;13.432;2022-11-15T07:17:24;10.00;57.30
21335;DHT22;10826;52.536;13.432;2022-11-15T07:19:50;10.10;57.40
21335;DHT22;10826;52.536;13.432;2022-11-15T07:22:16;10.10;57.40
21335;DHT22;10826;52.536;13.432;2022-11-15T07:24:42;10.10;57.30
21335;DHT22;10826;52.536;13.432;2022-11-15T07:27:08;10.10;57.30
21335;DHT22;10826;52.536;13.432;2022-11-15T07:29:34;10.10;57.40
21335;DHT22;10826;52.536;13.432;2022-11-15T07:32:00;10.20;57.30
21335;DHT22;10826;52.536;13.432;2022-11-15T07:34:26;10.20;57.30
21335;DHT22;10826;52.536;13.432;2022-11-15T07:36:52;10.20;57.30
21335;DHT22;10826;52.536;13.432;2022-11-15T07:39:18;10.30;57.40
21335;DHT22;10826;52.536;13.432;2022-11-15T07:41:44;10.30;57.40
21335;DHT22;10826;52.536;13.432;2022-11-15T07:44:12;10.30;57.20
21335;DHT22;10826;52.536;13.432;2022-11-15T07:46:38;10.40;57.20
21335;DHT22;10826;52.536;13.432;2022-11-15T07:49:04;10.40;57.10
21335;DHT22;10826;52.536;13.432;2022-11-15T07:51:30;10.50;57.10
21335;DHT22;10826;52.536;13.432;2022-11-15T07:53:56;10.50;57.00
21335;DHT22;10826;52.536;13.432;2022-11-15T07:56:22;10.50;56.90
21335;DHT22;10826;52.536;13.432;2022-11-15T07:58:48;10.60;56.80
21335;DHT22;10826;52.536;13.432;2022-11-15T08:01:14;10.70;56.80
21335;DHT22;10826;52.536;13.432;2022-11-15T08:03:40;10.70;56.80
21335;DHT22;10826;52.536;13.432;2022-11-15T08:06:06;10.70;56.80
21335;DHT22;10826;52.536;13.432;2022-11-15T08:08:32;10.80;56.60
21335;DHT22;10826;52.536;13.432;2022-11-15T08:10:59;10.80;56.60
21335;DHT22;10826;52.536;13.432;2022-11-15T08:13:25;10.90;56.70
21335;DHT22;10826;52.536;13.432;2022-11-15T08:15:51;10.90;56.60
21335;DHT22;10826;52.536;13.432;2022-11-15T08:18:17;11.00;56.50
21335;DHT22;10826;52.536;13.432;2022-11-15T08:20:43;11.00;56.50
21335;DHT22;10826;52.536;13.432;2022-11-15T08:23:11;11.00;56.30
21335;DHT22;10826;52.536;13.432;2022-11-15T08:25:43;11.10;56.40
21335;DHT22;10826;52.536;13.432;2022-11-15T08:28:10;11.10;56.30
21335;DHT22;10826;52.536;13.432;2022-11-15T08:30:38;11.20;56.30
21335;DHT22;10826;52.536;13.432;2022-11-15T08:33:10;11.30;56.30
21335;DHT22;10826;52.536;13.432;2022-11-15T08:35:39;11.20;56.00
21335;DHT22;10826;52.536;13.432;2022-11-15T08:38:06;11.30;56.10
21335;DHT22;10826;52.536;13.432;2022-11-15T08:40:31;11.40;56.10
21335;DHT22;10826;52.536;13.432;2022-11-15T08:42:57;11.40;56.00
21335;DHT22;10826;52.536;13.432;2022-11-15T08:45:24;11.50;56.00
21335;DHT22;10826;52.536;13.432;2022-11-15T08:47:50;11.50;56.00
21335;DHT22;10826;52.536;13.432;2022-11-15T08:50:16;11.60;55.80
21335;DHT22;10826;52.536;13.432;2022-11-15T08:52:42;11.60;55.60
21335;DHT22;10826;52.536;13.432;2022-11-15T08:55:08;11.70;55.70
21335;DHT22;10826;52.536;13.432;2022-11-15T08:57:33;11.70;55.60
21335;DHT22;10826;52.536;13.432;2022-11-15T08:59:59;11.80;55.50
21335;DHT22;10826;52.536;13.432;2022-11-15T09:02:25;11.80;55.40
21335;DHT22;10826;52.536;13.432;2022-11-15T09:04:51;11.90;55.40
21335;DHT22;10826;52.536;13.432;2022-11-15T09:07:17;11.90;55.40
21335;DHT22;10826;52.536;13.432;2022-11-15T09:09:44;12.00;55.30
21335;DHT22;10826;52.536;13.432;2022-11-15T09:12:10;12.00;55.00
21335;DHT22;10826;52.536;13.432;2022-11-15T09:14:36;12.00;55.00
21335;DHT22;10826;52.536;13.432;2022-11-15T09:17:03;12.10;55.00
21335;DHT22;10826;52.536;13.432;2022-11-15T09:19:29;12.20;54.70
21335;DHT22;10826;52.536;13.432;2022-11-15T09:21:55;12.20;54.70
21335;DHT22;10826;52.536;13.432;2022-11-15T09:24:21;12.30;54.80
21335;DHT22;10826;52.536;13.432;2022-11-15T09:26:50;12.30;54.70
21335;DHT22;10826;52.536;13.432;2022-11-15T09:29:17;12.30;54.60
21335;DHT22;10826;52.536;13.432;2022-11-15T09:31:43;12.40;54.40
21335;DHT22;10826;52.536;13.432;2022-11-15T09:34:09;12.50;54.50
21335;DHT22;10826;52.536;13.432;2022-11-15T09:36:35;12.50;54.20
21335;DHT22;10826;52.536;13.432;2022-11-15T09:39:02;12.60;54.10
21335;DHT22;10826;52.536;13.432;2022-11-15T09:41:49;12.70;54.20
21335;DHT22;10826;52.536;13.432;2022-11-15T09:50:41;12.90;53.80
21335;DHT22;10826;52.536;13.432;2022-11-15T09:53:16;12.90;53.60
21335;DHT22;10826;52.536;13.432;2022-11-15T09:56:02;12.90;53.60
21335;DHT22;10826;52.536;13.432;2022-11-15T09:58:39;13.00;53.40
21335;DHT22;10826;52.536;13.432;2022-11-15T10:01:20;13.00;53.50
21335;DHT22;10826;52.536;13.432;2022-11-15T10:04:08;13.10;53.70
21335;DHT22;10826;52.536;13.432;2022-11-15T10:06:38;13.20;53.50
21335;DHT22;10826;52.536;13.432;2022-11-15T10:12:18;13.30;53.30
21335;DHT22;10826;52.536;13.432;2022-11-15T10:14:46;13.40;53.10
21335;DHT22;10826;52.536;13.432;2022-11-15T10:17:31;13.40;53.00
21335;DHT22;10826;52.536;13.432;2022-11-15T10:20:17;13.50;53.00
21335;DHT22;10826;52.536;13.432;2022-11-15T10:22:59;13.60;52.90
21335;DHT22;10826;52.536;13.432;2022-11-15T10:25:28;13.60;53.50
21335;DHT22;10826;52.536;13.432;2022-11-15T10:28:03;13.70;52.70
21335;DHT22;10826;52.536;13.432;2022-11-15T10:30:38;13.70;52.50
21335;DHT22;10826;52.536;13.432;2022-11-15T10:33:14;13.80;52.40
21335;DHT22;10826;52.536;13.432;2022-11-15T10:36:17;13.90;52.30
21335;DHT22;10826;52.536;13.432;2022-11-15T10:38:54;13.90;52.30
21335;DHT22;10826;52.536;13.432;2022-11-15T10:41:29;14.10;52.20
21335;DHT22;10826;52.536;13.432;2022-11-15T10:46:44;14.30;51.80
21335;DHT22;10826;52.536;13.432;2022-11-15T10:49:33;14.30;51.60
21335;DHT22;10826;52.536;13.432;2022-11-15T10:52:16;14.40;51.20
21335;DHT22;10826;52.536;13.432;2022-11-15T11:00:53;14.60;50.90
21335;DHT22;10826;52.536;13.432;2022-11-15T11:03:35;14.60;50.90
21335;DHT22;10826;52.536;13.432;2022-11-15T11:06:07;14.60;50.70
21335;DHT22;10826;52.536;13.432;2022-11-15T11:08:59;14.60;50.70
21335;DHT22;10826;52.536;13.432;2022-11-15T11:11:46;14.70;50.60
21335;DHT22;10826;52.536;13.432;2022-11-15T11:14:24;14.70;50.40
21335;DHT22;10826;52.536;13.432;2022-11-15T11:17:16;14.70;50.20
21335;DHT22;10826;52.536;13.432;2022-11-15T11:20:07;14.80;50.10
21335;DHT22;10826;52.536;13.432;2022-11-15T11:28:42;14.80;50.00
21335;DHT22;10826;52.536;13.432;2022-11-15T11:37:20;14.90;50.10
21335;DHT22;10826;52.536;13.432;2022-11-15T11:43:03;15.00;49.90
21335;DHT22;10826;52.536;13.432;2022-11-15T11:48:46;15.00;49.90
21335;DHT22;10826;52.536;13.432;2022-11-15T11:51:24;15.10;49.80
21335;DHT22;10826;52.536;13.432;2022-11-15T11:54:06;15.10;49.70
21335;DHT22;10826;52.536;13.432;2022-11-15T11:56:40;15.20;49.70
21335;DHT22;10826;52.536;13.432;2022-11-15T11:59:23;15.20;49.60
21335;DHT22;10826;52.536;13.432;2022-11-15T12:01:51;15.20;49.60
21335;DHT22;10826;52.536;13.432;2022-11-15T12:04:29;15.20;49.70
21335;DHT22;10826;52.536;13.432;2022-11-15T12:07:25;15.30;49.60
21335;DHT22;10826;52.536;13.432;2022-11-15T12:10:23;15.20;49.60
21335;DHT22;10826;52.536;13.432;2022-11-15T12:13:19;15.30;49.60
21335;DHT22;10826;52.536;13.432;2022-11-15T12:16:11;15.30;49.60
21335;DHT22;10826;52.536;13.432;2022-11-15T12:18:43;15.40;49.50
21335;DHT22;10826;52.536;13.432;2022-11-15T12:24:25;15.40;49.40
21335;DHT22;10826;52.536;13.432;2022-11-15T12:30:12;15.50;49.50
21335;DHT22;10826;52.536;13.432;2022-11-15T12:32:57;15.50;49.50
21335;DHT22;10826;52.536;13.432;2022-11-15T12:35:36;15.50;49.50
21335;DHT22;10826;52.536;13.432;2022-11-15T12:38:10;15.50;49.40
21335;DHT22;10826;52.536;13.432;2022-11-15T12:40:38;15.50;49.40
21335;DHT22;10826;52.536;13.432;2022-11-15T12:43:42;15.50;49.40
21335;DHT22;10826;52.536;13.432;2022-11-15T13:05:52;15.80;49.10
21335;DHT22;10826;52.536;13.432;2022-11-15T13:08:07;15.80;49.00
21335;DHT22;10826;52.536;13.432;2022-11-15T13:10:39;15.80;49.10
21335;DHT22;10826;52.536;13.432;2022-11-15T13:13:09;15.70;49.10
21335;DHT22;10826;52.536;13.432;2022-11-15T13:15:39;15.80;49.10
21335;DHT22;10826;52.536;13.432;2022-11-15T13:18:33;15.80;49.10
21335;DHT22;10826;52.536;13.432;2022-11-15T13:21:18;15.80;49.10
21335;DHT22;10826;52.536;13.432;2022-11-15T13:24:09;15.80;49.10
21335;DHT22;10826;52.536;13.432;2022-11-15T13:26:39;15.80;49.10
21335;DHT22;10826;52.536;13.432;2022-11-15T13:29:15;15.80;49.10
21335;DHT22;10826;52.536;13.432;2022-11-15T13:31:43;15.80;49.10
21335;DHT22;10826;52.536;13.432;2022-11-15T13:34:28;15.70;49.10
21335;DHT22;10826;52.536;13.432;2022-11-15T13:36:59;15.80;49.00
21335;DHT22;10826;52.536;13.432;2022-11-15T13:39:31;15.80;49.10
21335;DHT22;10826;52.536;13.432;2022-11-15T13:41:59;15.80;49.10
21335;DHT22;10826;52.536;13.432;2022-11-15T13:44:29;15.80;49.10
21335;DHT22;10826;52.536;13.432;2022-11-15T13:47:19;15.80;49.20
21335;DHT22;10826;52.536;13.432;2022-11-15T13:49:45;15.80;49.30
21335;DHT22;10826;52.536;13.432;2022-11-15T13:52:13;15.80;49.30
21335;DHT22;10826;52.536;13.432;2022-11-15T13:54:58;15.80;49.20
21335;DHT22;10826;52.536;13.432;2022-11-15T13:57:44;15.70;49.30
21335;DHT22;10826;52.536;13.432;2022-11-15T14:00:42;15.70;49.30
21335;DHT22;10826;52.536;13.432;2022-11-15T14:06:21;15.70;49.40
21335;DHT22;10826;52.536;13.432;2022-11-15T14:09:24;15.70;49.40
21335;DHT22;10826;52.536;13.432;2022-11-15T14:11:52;15.70;49.50
21335;DHT22;10826;52.536;13.432;2022-11-15T14:14:22;15.70;49.60
21335;DHT22;10826;52.536;13.432;2022-11-15T14:16:54;15.70;49.70
21335;DHT22;10826;52.536;13.432;2022-11-15T14:22:22;15.60;49.70
21335;DHT22;10826;52.536;13.432;2022-11-15T14:25:16;15.60;49.70
21335;DHT22;10826;52.536;13.432;2022-11-15T14:30:48;15.60;49.90
21335;DHT22;10826;52.536;13.432;2022-11-15T14:35:55;15.60;50.00
21335;DHT22;10826;52.536;13.432;2022-11-15T14:38:24;15.50;50.10
21335;DHT22;10826;52.536;13.432;2022-11-15T14:40:50;15.50;50.20
21335;DHT22;10826;52.536;13.432;2022-11-15T14:43:17;15.50;50.30
21335;DHT22;10826;52.536;13.432;2022-11-15T14:45:43;15.50;50.30
21335;DHT22;10826;52.536;13.432;2022-11-15T14:48:09;15.50;50.40
21335;DHT22;10826;52.536;13.432;2022-11-15T14:50:35;15.40;50.40
21335;DHT22;10826;52.536;13.432;2022-11-15T14:53:02;15.40;50.50
21335;DHT22;10826;52.536;13.432;2022-11-15T14:55:33;15.40;50.50
21335;DHT22;10826;52.536;13.432;2022-11-15T14:58:05;15.30;50.60
21335;DHT22;10826;52.536;13.432;2022-11-15T15:00:34;15.30;50.70
21335;DHT22;10826;52.536;13.432;2022-11-15T15:03:04;15.30;50.90
21335;DHT22;10826;52.536;13.432;2022-11-15T15:05:33;15.30;51.10
21335;DHT22;10826;52.536;13.432;2022-11-15T15:08:07;15.30;51.10
21335;DHT22;10826;52.536;13.432;2022-11-15T15:10:37;15.20;51.10
21335;DHT22;10826;52.536;13.432;2022-11-15T15:13:06;15.20;51.30
21335;DHT22;10826;52.536;13.432;2022-11-15T15:15:40;15.10;51.40
21335;DHT22;10826;52.536;13.432;2022-11-15T15:18:06;15.10;52.30
21335;DHT22;10826;52.536;13.432;2022-11-15T15:20:35;15.10;51.70
21335;DHT22;10826;52.536;13.432;2022-11-15T15:23:05;15.00;51.70
21335;DHT22;10826;52.536;13.432;2022-11-15T15:25:35;15.00;51.90
21335;DHT22;10826;52.536;13.432;2022-11-15T15:28:01;15.00;52.00
21335;DHT22;10826;52.536;13.432;2022-11-15T15:30:29;14.90;52.20
21335;DHT22;10826;52.536;13.432;2022-11-15T15:32:56;14.90;52.30
21335;DHT22;10826;52.536;13.432;2022-11-15T15:35:29;14.80;52.40
21335;DHT22;10826;52.536;13.432;2022-11-15T15:37:56;14.80;52.50
21335;DHT22;10826;52.536;13.432;2022-11-15T15:40:23;14.80;52.70
21335;DHT22;10826;52.536;13.432;2022-11-15T15:42:50;14.80;52.80
21335;DHT22;10826;52.536;13.432;2022-11-15T15:45:17;14.80;52.90
21335;DHT22;10826;52.536;13.432;2022-11-15T15:47:45;14.60;52.90
21335;DHT22;10826;52.536;13.432;2022-11-15T15:50:31;14.60;53.00
21335;DHT22;10826;52.536;13.432;2022-11-15T15:53:00;14.60;53.20
21335;DHT22;10826;52.536;13.432;2022-11-15T15:55:28;14.60;53.20
21335;DHT22;10826;52.536;13.432;2022-11-15T15:57:54;14.50;53.30
21335;DHT22;10826;52.536;13.432;2022-11-15T16:00:22;14.50;53.40
21335;DHT22;10826;52.536;13.432;2022-11-15T16:02:50;14.50;53.60
21335;DHT22;10826;52.536;13.432;2022-11-15T16:05:17;14.50;53.80
21335;DHT22;10826;52.536;13.432;2022-11-15T16:07:44;14.50;53.90
21335;DHT22;10826;52.536;13.432;2022-11-15T16:10:29;14.50;53.90
21335;DHT22;10826;52.536;13.432;2022-11-15T16:13:00;14.40;53.90
21335;DHT22;10826;52.536;13.432;2022-11-15T16:15:28;14.40;54.10
21335;DHT22;10826;52.536;13.432;2022-11-15T16:17:57;14.40;54.20
21335;DHT22;10826;52.536;13.432;2022-11-15T16:20:33;14.30;54.30
21335;DHT22;10826;52.536;13.432;2022-11-15T16:23:03;14.30;54.30
21335;DHT22;10826;52.536;13.432;2022-11-15T16:25:36;14.30;54.50
21335;DHT22;10826;52.536;13.432;2022-11-15T16:28:25;14.30;54.50
21335;DHT22;10826;52.536;13.432;2022-11-15T16:31:11;14.20;54.50
21335;DHT22;10826;52.536;13.432;2022-11-15T16:33:38;14.20;54.60
21335;DHT22;10826;52.536;13.432;2022-11-15T16:36:12;14.20;54.80
21335;DHT22;10826;52.536;13.432;2022-11-15T16:38:45;14.10;55.00
21335;DHT22;10826;52.536;13.432;2022-11-15T16:41:11;14.10;55.10
21335;DHT22;10826;52.536;13.432;2022-11-15T16:43:36;14.00;55.10
21335;DHT22;10826;52.536;13.432;2022-11-15T16:46:17;14.00;55.20
21335;DHT22;10826;52.536;13.432;2022-11-15T16:48:48;14.00;55.30
21335;DHT22;10826;52.536;13.432;2022-11-15T16:51:15;13.90;55.50
21335;DHT22;10826;52.536;13.432;2022-11-15T16:53:42;13.90;55.60
21335;DHT22;10826;52.536;13.432;2022-11-15T16:56:28;13.80;55.60
21335;DHT22;10826;52.536;13.432;2022-11-15T16:58:56;13.80;55.50
21335;DHT22;10826;52.536;13.432;2022-11-15T17:03:52;13.70;55.80
21335;DHT22;10826;52.536;13.432;2022-11-15T17:06:18;13.60;55.80
21335;DHT22;10826;52.536;13.432;2022-11-15T17:08:46;13.60;55.90
21335;DHT22;10826;52.536;13.432;2022-11-15T17:11:18;13.50;56.10
21335;DHT22;10826;52.536;13.432;2022-11-15T17:13:46;13.50;56.10
21335;DHT22;10826;52.536;13.432;2022-11-15T17:16:15;13.50;56.20
21335;DHT22;10826;52.536;13.432;2022-11-15T17:18:43;13.40;56.10
21335;DHT22;10826;52.536;13.432;2022-11-15T17:21:17;13.40;56.10